Time;durP1;ratioP1;P1;durP2;ratioP2;P2;SDS_P1;SDS_P2;PMS_P1;PMS_P2;Temp;Humidity;BMP_temperature;BMP_pressure;BME280_temperature;BME280_humidity;BME280_pressure;Samples;Min_cycle;Max_cycle;Signal;HPM_P1;HPM_P2
2023/08/09 00:02:19;;;;;;;6.55;5.78;;;14.90;99.90;;;;;;5022988;28;38429;-96
2023/08/09 00:04:45;;;;;;;6.30;5.47;;;14.90;99.90;;;;;;5009309;28;39119;-95
2023/08/09 00:07:11;;;;;;;6.80;5.47;;;14.90;99.90;;;;;;5006870;28;39684;-95
2023/08/09 00:09:39;;;;;;;7.07;5.85;;;14.90;99.90;;;;;;5009882;28;41010;-96
2023/08/09 00:12:05;;;;;;;7.38;6.68;;;14.80;99.90;;;;;;5009694;28;40168;-95
2023/08/09 00:14:31;;;;;;;7.57;6.20;;;14.80;99.90;;;;;;5012937;28;38931;-95
2023/08/09 00:16:58;;;;;;;7.90;6.70;;;14.80;99.90;;;;;;5010017;28;38435;-95
2023/08/09 00:19:24;;;;;;;7.10;6.50;;;14.80;99.90;;;;;;5025340;28;37524;-95
2023/08/09 00:21:50;;;;;;;9.40;7.93;;;14.70;99.90;;;;;;5009891;28;39660;-95
2023/08/09 00:24:17;;;;;;;8.60;7.70;;;14.60;99.90;;;;;;5010702;28;39219;-95
2023/08/09 00:26:43;;;;;;;9.07;8.18;;;14.60;99.90;;;;;;5008441;28;37978;-95
2023/08/09 00:29:09;;;;;;;11.00;9.48;;;14.60;99.90;;;;;;5007567;28;36549;-95
2023/08/09 00:31:35;;;;;;;10.73;9.60;;;14.60;99.90;;;;;;5027400;28;39609;-94
2023/08/09 00:34:01;;;;;;;9.75;8.85;;;14.60;99.90;;;;;;5010575;28;37589;-93
2023/08/09 00:36:27;;;;;;;9.88;8.50;;;14.60;99.90;;;;;;5010620;28;46961;-95
2023/08/09 00:38:53;;;;;;;10.75;9.52;;;14.60;99.90;;;;;;5010236;28;37958;-95
2023/08/09 00:41:20;;;;;;;10.52;9.27;;;14.60;99.90;;;;;;5006497;28;39387;-96
2023/08/09 00:43:46;;;;;;;11.23;9.70;;;14.60;99.90;;;;;;5005254;28;39317;-95
2023/08/09 00:46:13;;;;;;;10.23;9.07;;;14.60;99.90;;;;;;5008255;28;38273;-95
2023/08/09 00:48:39;;;;;;;9.85;8.85;;;14.60;99.90;;;;;;5023851;28;38214;-95
2023/08/09 00:51:05;;;;;;;10.68;9.57;;;14.60;99.90;;;;;;5006393;28;39463;-95
2023/08/09 00:53:31;;;;;;;10.32;9.32;;;14.60;99.90;;;;;;5010667;28;38551;-95
2023/08/09 00:55:58;;;;;;;10.95;9.52;;;14.60;99.90;;;;;;5011362;28;38428;-95
2023/08/09 00:58:24;;;;;;;10.68;9.57;;;14.60;99.90;;;;;;5020908;28;38149;-95
2023/08/09 01:03:26;;;;;;;10.55;9.45;;;14.60;99.90;;;;;;5113489;23;20061;-89
2023/08/09 01:06:04;;;;;;;9.45;8.20;;;14.60;99.90;;;;;;4966056;28;37759;-86
2023/08/09 01:08:40;;;;;;;10.52;9.35;;;14.60;99.90;;;;;;4981519;28;47118;-89
2023/08/09 01:11:12;;;;;;;10.32;9.05;;;14.50;99.90;;;;;;4996345;28;38705;-89
2023/08/09 01:13:41;;;;;;;11.90;9.63;;;14.50;99.90;;;;;;4986470;28;37362;-90
2023/08/09 01:16:08;;;;;;;10.00;8.63;;;14.50;99.90;;;;;;4974710;28;37462;-88
2023/08/09 01:18:35;;;;;;;11.02;9.93;;;14.50;99.90;;;;;;4985402;28;36144;-89
2023/08/09 01:21:02;;;;;;;11.48;9.63;;;14.50;99.90;;;;;;4996044;28;39087;-87
2023/08/09 01:23:37;;;;;;;10.98;9.75;;;14.50;99.90;;;;;;4977516;28;47032;-91
2023/08/09 01:26:06;;;;;;;13.95;11.10;;;14.50;99.90;;;;;;4975680;28;37223;-88
2023/08/09 01:28:32;;;;;;;11.02;9.82;;;14.60;99.90;;;;;;4984060;28;36028;-90
2023/08/09 01:30:58;;;;;;;11.05;9.95;;;14.50;99.90;;;;;;4987989;28;36299;-89
2023/08/09 01:33:26;;;;;;;12.05;9.80;;;14.50;99.90;;;;;;4993252;28;37500;-90
2023/08/09 01:36:11;;;;;;;19.77;14.63;;;14.50;99.90;;;;;;4991768;28;36880;-91
2023/08/09 01:38:53;;;;;;;13.10;10.27;;;14.50;99.90;;;;;;4987740;28;47212;-90
2023/08/09 01:41:20;;;;;;;13.05;10.27;;;14.60;99.90;;;;;;4987954;28;37688;-91
2023/08/09 01:43:47;;;;;;;12.70;10.93;;;14.50;99.90;;;;;;4991768;28;37320;-90
2023/08/09 01:46:14;;;;;;;16.52;12.25;;;14.50;99.90;;;;;;4985904;28;38078;-90
2023/08/09 01:48:41;;;;;;;12.75;10.70;;;14.50;99.90;;;;;;4987356;28;36605;-92
2023/08/09 01:51:08;;;;;;;10.80;9.68;;;14.50;99.90;;;;;;4975419;28;39251;-90
2023/08/09 01:53:34;;;;;;;13.40;11.57;;;14.60;99.90;;;;;;4977548;28;38270;-90
2023/08/09 01:56:00;;;;;;;13.35;11.18;;;14.60;99.90;;;;;;4993760;28;38957;-90
2023/08/09 01:58:26;;;;;;;14.60;12.38;;;14.50;99.90;;;;;;4980131;28;37359;-90
2023/08/09 02:00:52;;;;;;;16.08;11.85;;;14.50;99.90;;;;;;4988213;28;38146;-88
2023/08/09 02:03:19;;;;;;;13.35;11.88;;;14.40;99.90;;;;;;5002397;28;37369;-90
2023/08/09 02:05:45;;;;;;;20.30;14.38;;;14.40;99.90;;;;;;4996389;28;39106;-90
2023/08/09 02:08:11;;;;;;;16.70;14.10;;;14.40;99.90;;;;;;4986746;28;37492;-91
2023/08/09 02:10:37;;;;;;;17.88;12.88;;;14.40;99.90;;;;;;4995218;28;39014;-91
2023/08/09 02:13:05;;;;;;;17.25;13.40;;;14.50;99.90;;;;;;5001091;28;37313;-90
2023/08/09 02:15:31;;;;;;;18.20;14.45;;;14.50;99.90;;;;;;4995339;28;36931;-89
2023/08/09 02:17:58;;;;;;;17.35;13.55;;;14.50;99.90;;;;;;4999964;28;36318;-89
2023/08/09 02:20:25;;;;;;;20.55;16.45;;;14.40;99.90;;;;;;4998481;28;37743;-90
2023/08/09 02:22:51;;;;;;;18.27;15.10;;;14.50;99.90;;;;;;4980907;28;38627;-90
2023/08/09 02:25:17;;;;;;;19.83;16.25;;;14.50;99.90;;;;;;4996389;28;38834;-90
2023/08/09 02:27:51;;;;;;;15.13;13.07;;;14.50;99.90;;;;;;4982012;28;36579;-91
2023/08/09 02:30:17;;;;;;;16.42;13.30;;;14.60;99.90;;;;;;4990607;28;37618;-90
2023/08/09 02:32:47;;;;;;;16.55;13.25;;;14.60;99.90;;;;;;4983780;28;38568;-90
2023/08/09 02:35:13;;;;;;;15.40;13.07;;;14.60;99.90;;;;;;5001798;28;37362;-90
2023/08/09 02:37:43;;;;;;;17.10;14.38;;;14.50;99.90;;;;;;4982090;28;36808;-89
2023/08/09 02:40:10;;;;;;;19.77;14.90;;;14.50;99.90;;;;;;5001012;28;38049;-90
2023/08/09 02:42:37;;;;;;;16.55;13.35;;;14.60;99.90;;;;;;4998113;28;37346;-90
2023/08/09 02:45:05;;;;;;;17.65;14.80;;;14.60;99.90;;;;;;4991218;28;37055;-89
2023/08/09 02:47:31;;;;;;;18.27;14.75;;;14.50;99.90;;;;;;4972883;28;47164;-90
2023/08/09 02:49:59;;;;;;;21.45;15.82;;;14.50;99.90;;;;;;4990243;28;37622;-91
2023/08/09 02:52:25;;;;;;;20.15;15.68;;;14.50;99.90;;;;;;4993227;28;37567;-92
2023/08/09 02:54:53;;;;;;;22.73;16.38;;;14.50;99.90;;;;;;4995682;28;39666;-89
2023/08/09 02:57:21;;;;;;;22.02;16.98;;;14.50;99.90;;;;;;4994783;28;36824;-90
2023/08/09 02:59:47;;;;;;;21.92;16.35;;;14.50;99.90;;;;;;4995009;28;40871;-88
2023/08/09 03:02:13;;;;;;;17.42;14.98;;;14.50;99.90;;;;;;4974152;28;38329;-90
2023/08/09 03:04:39;;;;;;;17.88;15.90;;;14.50;99.90;;;;;;4995538;28;37165;-90
2023/08/09 03:07:06;;;;;;;22.52;16.00;;;14.50;99.90;;;;;;4993592;28;37456;-90
2023/08/09 03:09:32;;;;;;;23.67;18.23;;;14.50;99.90;;;;;;4993777;28;37673;-90
2023/08/09 03:11:58;;;;;;;22.90;18.00;;;14.50;99.90;;;;;;4975283;28;38630;-90
2023/08/09 03:14:24;;;;;;;25.38;19.33;;;14.40;99.90;;;;;;4991637;28;38231;-91
2023/08/09 03:16:51;;;;;;;22.33;17.75;;;14.40;99.90;;;;;;4978153;28;37922;-91
2023/08/09 03:19:17;;;;;;;24.42;18.40;;;14.40;99.90;;;;;;4989844;28;39161;-89
2023/08/09 03:21:43;;;;;;;21.80;15.93;;;14.40;99.90;;;;;;4991283;28;37326;-89
2023/08/09 03:24:09;;;;;;;20.55;16.60;;;14.40;99.90;;;;;;4979532;28;37672;-89
2023/08/09 03:26:35;;;;;;;22.55;17.00;;;14.40;99.90;;;;;;4988981;28;36459;-89
2023/08/09 03:29:02;;;;;;;21.42;15.85;;;14.40;99.90;;;;;;4992374;28;38782;-89
2023/08/09 03:31:28;;;;;;;23.88;17.27;;;14.40;99.90;;;;;;4994869;28;37126;-91
2023/08/09 03:33:54;;;;;;;20.77;16.27;;;14.40;99.90;;;;;;4993978;28;36999;-89
2023/08/09 03:36:20;;;;;;;19.35;15.52;;;14.40;99.90;;;;;;4984180;28;36568;-90
2023/08/09 03:38:48;;;;;;;20.70;16.25;;;14.40;99.90;;;;;;4991776;28;37613;-91
2023/08/09 03:41:14;;;;;;;23.63;16.85;;;14.40;99.90;;;;;;4990131;28;37699;-90
2023/08/09 03:43:41;;;;;;;18.67;15.63;;;14.40;99.90;;;;;;4990153;28;37121;-89
2023/08/09 03:46:08;;;;;;;19.02;15.45;;;14.40;99.90;;;;;;4980868;28;36307;-89
2023/08/09 03:48:34;;;;;;;22.35;16.40;;;14.40;99.90;;;;;;4995551;28;39042;-92
2023/08/09 03:51:00;;;;;;;20.52;16.90;;;14.40;99.90;;;;;;4991297;28;37129;-90
2023/08/09 03:53:26;;;;;;;21.35;16.23;;;14.40;99.90;;;;;;4994846;28;37163;-90
2023/08/09 03:55:56;;;;;;;23.70;17.75;;;14.40;99.90;;;;;;4994933;28;37587;-90
2023/08/09 03:58:23;;;;;;;23.08;17.67;;;14.40;99.90;;;;;;4990681;28;38163;-90
2023/08/09 04:00:49;;;;;;;21.65;16.90;;;14.40;99.90;;;;;;4995414;28;38207;-91
2023/08/09 04:03:17;;;;;;;18.85;15.65;;;14.40;99.90;;;;;;4988631;28;39207;-88
2023/08/09 04:05:43;;;;;;;21.88;16.30;;;14.40;99.90;;;;;;4974664;28;38610;-88
2023/08/09 04:08:09;;;;;;;19.23;15.27;;;14.40;99.90;;;;;;4990598;28;38671;-88
2023/08/09 04:10:36;;;;;;;19.30;15.13;;;14.40;99.90;;;;;;4997338;28;20212;-90
2023/08/09 04:13:03;;;;;;;23.83;18.45;;;14.40;99.90;;;;;;4993235;28;36990;-89
2023/08/09 04:15:29;;;;;;;20.52;16.20;;;14.30;99.90;;;;;;4994589;28;38056;-91
2023/08/09 04:17:55;;;;;;;20.73;15.73;;;14.30;99.90;;;;;;4994737;28;38872;-89
2023/08/09 04:20:22;;;;;;;20.23;15.95;;;14.40;99.90;;;;;;4977365;28;37357;-89
2023/08/09 04:22:55;;;;;;;26.35;19.13;;;14.40;99.90;;;;;;4991896;28;38010;-89
2023/08/09 04:25:21;;;;;;;15.75;13.38;;;14.40;99.90;;;;;;4990594;28;37529;-90
2023/08/09 04:27:48;;;;;;;21.63;15.45;;;14.40;99.90;;;;;;4991264;28;38764;-91
2023/08/09 04:30:14;;;;;;;17.90;14.25;;;14.50;99.90;;;;;;4998323;28;38666;-88
2023/08/09 04:32:40;;;;;;;20.15;14.07;;;14.50;99.90;;;;;;4992516;28;36526;-91
2023/08/09 04:35:09;;;;;;;16.15;13.73;;;14.50;99.90;;;;;;4995822;28;37503;-90
2023/08/09 04:37:37;;;;;;;18.00;13.95;;;14.50;99.90;;;;;;4998240;28;37545;-89
2023/08/09 04:40:09;;;;;;;16.83;13.38;;;14.50;99.90;;;;;;4990753;28;37624;-90
2023/08/09 04:42:35;;;;;;;17.23;13.45;;;14.60;99.90;;;;;;4975298;28;47235;-89
2023/08/09 04:45:01;;;;;;;16.13;13.15;;;14.60;99.90;;;;;;4982632;28;36259;-89
2023/08/09 04:47:27;;;;;;;17.70;13.57;;;14.60;99.90;;;;;;4999188;28;37936;-89
2023/08/09 04:49:53;;;;;;;17.70;13.45;;;14.60;99.90;;;;;;4995259;28;37303;-92
2023/08/09 04:52:20;;;;;;;14.90;12.55;;;14.70;99.90;;;;;;4998844;28;37384;-91
2023/08/09 04:54:46;;;;;;;17.20;12.90;;;14.70;99.90;;;;;;4986052;28;36993;-91
2023/08/09 04:57:12;;;;;;;15.93;12.93;;;14.70;99.90;;;;;;4992988;28;38720;-91
2023/08/09 04:59:38;;;;;;;16.15;12.82;;;14.70;99.90;;;;;;4978021;28;38852;-90
2023/08/09 05:02:05;;;;;;;17.90;14.27;;;14.80;99.90;;;;;;4999879;28;37177;-91
2023/08/09 05:04:32;;;;;;;17.02;13.38;;;14.70;99.90;;;;;;4985897;28;36660;-90
2023/08/09 05:07:00;;;;;;;15.20;12.68;;;14.70;99.90;;;;;;4978706;28;37865;-90
2023/08/09 05:09:27;;;;;;;14.23;12.45;;;14.70;99.90;;;;;;4995831;28;39257;-88
2023/08/09 05:11:58;;;;;;;14.90;12.35;;;14.80;99.90;;;;;;4978528;28;38243;-90
2023/08/09 05:14:25;;;;;;;14.73;12.05;;;14.70;99.90;;;;;;4933147;28;38080;-88
2023/08/09 05:16:52;;;;;;;14.15;11.95;;;14.70;99.90;;;;;;4999783;28;39605;-93
2023/08/09 05:19:19;;;;;;;15.20;11.35;;;14.70;99.90;;;;;;4989577;28;39226;-94
2023/08/09 05:21:45;;;;;;;12.82;10.60;;;14.80;99.90;;;;;;4989877;28;39068;-90
2023/08/09 05:24:13;;;;;;;15.27;12.23;;;14.80;99.90;;;;;;4970539;28;35891;-87
2023/08/09 05:26:40;;;;;;;14.38;11.75;;;14.90;99.90;;;;;;4986590;28;38852;-88
2023/08/09 05:29:06;;;;;;;13.23;10.40;;;14.80;99.90;;;;;;4985428;28;37891;-89
2023/08/09 05:31:33;;;;;;;13.73;11.07;;;14.90;99.90;;;;;;4969227;28;37786;-89
2023/08/09 05:34:02;;;;;;;15.13;11.73;;;14.90;99.90;;;;;;4973253;28;36459;-89
2023/08/09 05:36:28;;;;;;;13.48;10.45;;;14.90;99.90;;;;;;4983308;28;47118;-90
2023/08/09 05:38:54;;;;;;;12.05;10.63;;;14.80;99.90;;;;;;4980623;28;36999;-88
2023/08/09 05:41:20;;;;;;;11.68;10.32;;;14.80;99.90;;;;;;4960143;28;36975;-91
2023/08/09 05:43:48;;;;;;;12.02;10.65;;;14.80;99.90;;;;;;4985550;28;36446;-88
2023/08/09 05:46:15;;;;;;;12.35;11.00;;;14.90;99.90;;;;;;4985585;28;38464;-83
2023/08/09 05:48:41;;;;;;;13.77;10.65;;;15.00;99.90;;;;;;4973079;28;38711;-91
2023/08/09 05:51:07;;;;;;;12.85;10.25;;;15.00;99.90;;;;;;4969818;28;37134;-82
2023/08/09 05:53:33;;;;;;;14.23;10.48;;;15.10;99.90;;;;;;4982575;28;37762;-89
2023/08/09 05:55:59;;;;;;;12.90;9.80;;;15.10;99.90;;;;;;4981970;28;38254;-83
2023/08/09 05:58:25;;;;;;;13.90;11.68;;;15.20;99.90;;;;;;4961335;28;38103;-86
2023/08/09 06:00:52;;;;;;;11.73;8.93;;;15.30;99.90;;;;;;4984749;28;37506;-92
2023/08/09 06:03:18;;;;;;;10.73;8.82;;;15.50;99.90;;;;;;4985206;28;35528;-89
2023/08/09 06:05:44;;;;;;;13.82;8.40;;;15.60;99.90;;;;;;4991101;28;38977;-89
2023/08/09 06:08:15;;;;;;;11.75;8.25;;;15.60;99.90;;;;;;4992420;28;38326;-90
2023/08/09 06:10:41;;;;;;;8.63;7.75;;;15.70;99.90;;;;;;4989128;28;36948;-90
2023/08/09 06:13:07;;;;;;;9.32;7.80;;;15.80;99.90;;;;;;4995251;28;37102;-89
2023/08/09 06:15:33;;;;;;;8.48;7.60;;;15.90;99.90;;;;;;4993595;28;38375;-90
2023/08/09 06:17:59;;;;;;;9.98;6.85;;;16.00;99.90;;;;;;4979211;28;37469;-90
2023/08/09 06:20:27;;;;;;;9.98;7.25;;;16.00;99.90;;;;;;4992395;28;38104;-91
2023/08/09 06:22:55;;;;;;;8.13;6.38;;;16.00;99.90;;;;;;4983310;28;36369;-92
2023/08/09 06:25:21;;;;;;;10.90;7.00;;;16.10;99.90;;;;;;4972407;28;37907;-92
2023/08/09 06:27:48;;;;;;;7.20;5.95;;;16.20;99.90;;;;;;4994203;28;38812;-91
2023/08/09 06:30:14;;;;;;;9.52;6.32;;;16.30;99.90;;;;;;4993929;28;38174;-92
2023/08/09 06:32:40;;;;;;;6.13;5.50;;;16.40;99.90;;;;;;4995895;28;37343;-92
2023/08/09 06:35:09;;;;;;;7.57;5.45;;;16.50;99.90;;;;;;4977028;28;37657;-91
2023/08/09 06:37:36;;;;;;;6.88;5.20;;;16.60;99.90;;;;;;4978962;28;38655;-90
2023/08/09 06:40:09;;;;;;;5.63;4.88;;;16.80;99.90;;;;;;4983933;28;36993;-91
2023/08/09 06:42:43;;;;;;;9.18;5.43;;;16.70;99.90;;;;;;4959371;28;47411;-91
2023/08/09 06:45:10;;;;;;;5.47;4.57;;;16.80;99.90;;;;;;4991420;28;37900;-91
2023/08/09 06:47:36;;;;;;;4.60;4.20;;;16.90;99.90;;;;;;4991195;28;37323;-89
2023/08/09 06:50:06;;;;;;;6.80;5.13;;;17.10;99.90;;;;;;4977429;28;37837;-91
2023/08/09 06:52:36;;;;;;;4.63;3.90;;;17.10;99.90;;;;;;4998013;28;47274;-92
2023/08/09 06:55:07;;;;;;;9.43;4.78;;;17.10;99.90;;;;;;4992727;28;37714;-88
2023/08/09 06:57:34;;;;;;;5.93;4.55;;;17.30;99.90;;;;;;4975535;28;47373;-92
2023/08/09 07:00:05;;;;;;;5.55;4.28;;;17.30;99.90;;;;;;5002162;28;38338;-93
2023/08/09 07:02:35;;;;;;;5.70;4.07;;;17.40;99.90;;;;;;4996811;28;36260;-93
2023/08/09 07:05:09;;;;;;;4.20;3.22;;;17.40;99.90;;;;;;4981648;28;37918;-93
2023/08/09 07:07:35;;;;;;;3.92;3.42;;;17.60;99.90;;;;;;4977977;28;47412;-92
2023/08/09 07:10:01;;;;;;;4.88;3.60;;;17.70;99.90;;;;;;4970967;28;36949;-93
2023/08/09 07:12:29;;;;;;;4.05;3.20;;;17.80;99.90;;;;;;4972324;28;37059;-94
2023/08/09 07:14:55;;;;;;;4.22;2.80;;;17.90;99.90;;;;;;4969695;28;38129;-93
2023/08/09 07:17:21;;;;;;;5.03;2.50;;;18.10;99.90;;;;;;4990915;28;38208;-90
2023/08/09 07:19:48;;;;;;;5.80;2.33;;;18.40;99.90;;;;;;4987739;28;37007;-92
2023/08/09 07:22:17;;;;;;;3.22;1.88;;;18.50;99.90;;;;;;4992916;28;37524;-95
2023/08/09 07:24:43;;;;;;;5.65;2.53;;;18.60;99.90;;;;;;4980514;28;37814;-91
2023/08/09 07:27:10;;;;;;;4.57;2.28;;;18.40;99.90;;;;;;4992609;28;38562;-92
2023/08/09 07:29:36;;;;;;;4.90;2.28;;;18.20;99.90;;;;;;4975700;28;37311;-93
2023/08/09 07:32:02;;;;;;;3.28;1.95;;;18.10;99.90;;;;;;4974296;28;37284;-92
2023/08/09 07:34:28;;;;;;;4.68;2.15;;;18.20;99.90;;;;;;4974495;28;37446;-93
2023/08/09 07:36:54;;;;;;;5.63;2.25;;;18.20;99.90;;;;;;4972266;28;37317;-93
2023/08/09 07:39:22;;;;;;;3.35;2.00;;;18.30;99.90;;;;;;4992741;28;39763;-92
2023/08/09 07:41:48;;;;;;;5.93;2.20;;;18.40;99.90;;;;;;4973730;28;36164;-93
2023/08/09 07:44:14;;;;;;;4.18;2.35;;;18.50;99.90;;;;;;4978115;28;37983;-91
2023/08/09 07:46:43;;;;;;;4.88;2.00;;;18.70;99.90;;;;;;4991075;28;38604;-91
2023/08/09 07:49:09;;;;;;;2.78;1.90;;;18.80;99.90;;;;;;4990695;28;37152;-92
2023/08/09 07:51:36;;;;;;;5.38;2.55;;;19.00;99.90;;;;;;4974670;28;35348;-92
2023/08/09 07:54:02;;;;;;;4.05;2.25;;;19.00;99.90;;;;;;4970329;28;37939;-85
2023/08/09 07:56:28;;;;;;;5.03;2.47;;;18.80;99.90;;;;;;4987969;28;37589;-86
2023/08/09 07:58:54;;;;;;;9.23;2.30;;;18.50;99.90;;;;;;4986649;28;38057;-87
2023/08/09 08:01:21;;;;;;;3.97;2.25;;;18.30;99.90;;;;;;4965844;28;36223;-85
2023/08/09 08:03:47;;;;;;;3.22;2.10;;;18.20;99.90;;;;;;4987166;28;37900;-87
2023/08/09 08:06:14;;;;;;;4.55;2.40;;;18.20;99.90;;;;;;4983637;28;37804;-89
2023/08/09 08:08:41;;;;;;;4.78;2.50;;;18.10;99.90;;;;;;4971701;28;38765;-89
2023/08/09 08:11:08;;;;;;;5.40;2.53;;;18.20;99.90;;;;;;4992448;28;37305;-90
2023/08/09 08:13:34;;;;;;;4.35;2.10;;;18.50;99.90;;;;;;4984804;28;38709;-92
2023/08/09 08:16:00;;;;;;;5.03;2.53;;;18.80;99.90;;;;;;4989051;28;37422;-86
2023/08/09 08:18:26;;;;;;;5.75;2.42;;;19.20;99.90;;;;;;4986119;28;36828;-85
2023/08/09 08:20:53;;;;;;;6.25;2.53;;;19.50;99.90;;;;;;4979897;28;36215;-86
2023/08/09 08:23:19;;;;;;;6.93;2.25;;;19.80;99.90;;;;;;4986651;28;38198;-86
2023/08/09 08:25:46;;;;;;;3.88;2.08;;;19.90;99.90;;;;;;4986821;28;37325;-85
2023/08/09 08:28:12;;;;;;;4.43;2.28;;;19.80;99.90;;;;;;4972577;28;37284;-85
2023/08/09 08:30:40;;;;;;;7.82;2.53;;;19.40;99.90;;;;;;4989771;28;36198;-87
2023/08/09 08:33:08;;;;;;;4.68;2.92;;;19.30;99.90;;;;;;4966736;28;39502;-86
2023/08/09 08:35:36;;;;;;;3.70;2.47;;;18.80;99.90;;;;;;4986091;28;37559;-86
2023/08/09 08:38:03;;;;;;;4.20;2.55;;;18.70;99.90;;;;;;4989784;28;38284;-88
2023/08/09 08:40:33;;;;;;;3.78;2.10;;;18.90;99.90;;;;;;4975814;28;36586;-87
2023/08/09 08:42:59;;;;;;;4.68;2.35;;;19.40;99.90;;;;;;4979052;28;38356;-88
2023/08/09 08:45:25;;;;;;;3.63;2.42;;;19.70;99.90;;;;;;4995105;28;39610;-87
2023/08/09 08:47:52;;;;;;;3.67;2.67;;;20.00;99.90;;;;;;4992849;28;37443;-87
2023/08/09 08:50:19;;;;;;;2.75;2.10;;;20.20;99.90;;;;;;4975892;28;37127;-83
2023/08/09 08:52:51;;;;;;;6.05;2.20;;;20.50;99.90;;;;;;4983275;28;38917;-92
2023/08/09 08:55:17;;;;;;;5.32;2.22;;;20.30;99.90;;;;;;4988908;28;37878;-86
2023/08/09 08:57:46;;;;;;;5.40;2.10;;;19.80;99.90;;;;;;4990982;28;36951;-87
2023/08/09 09:00:23;;;;;;;4.93;1.98;;;19.80;99.90;;;;;;4989858;28;36204;-90
2023/08/09 09:03:10;;;;;;;4.80;1.83;;;20.00;99.90;;;;;;4992079;28;49220;-92
2023/08/09 09:05:36;;;;;;;5.60;2.33;;;20.50;99.90;;;;;;4950731;28;49106;-90
2023/08/09 09:08:03;;;;;;;6.95;2.03;;;20.90;99.90;;;;;;4972797;28;38469;-85
2023/08/09 09:10:30;;;;;;;4.07;1.70;;;20.70;99.90;;;;;;4986096;28;37514;-87
2023/08/09 09:12:57;;;;;;;3.78;1.95;;;20.90;99.90;;;;;;4990590;28;37676;-90
2023/08/09 09:15:27;;;;;;;3.65;1.52;;;21.10;99.90;;;;;;4988940;28;37225;-84
2023/08/09 09:17:53;;;;;;;1.95;1.50;;;21.30;99.90;;;;;;4991255;28;36819;-84
2023/08/09 09:20:27;;;;;;;5.10;1.75;;;21.40;99.90;;;;;;4973656;28;36011;-88
2023/08/09 09:22:54;;;;;;;3.45;1.45;;;21.30;99.90;;;;;;4992802;28;38732;-85
2023/08/09 09:25:22;;;;;;;3.80;1.40;;;21.20;99.90;;;;;;4990160;28;38423;-90
2023/08/09 09:27:52;;;;;;;6.85;1.85;;;21.30;99.90;;;;;;4989089;28;36954;-84
2023/08/09 09:30:21;;;;;;;2.97;1.65;;;21.20;99.90;;;;;;4989912;28;37078;-84
2023/08/09 09:32:56;;;;;;;6.45;1.60;;;21.00;99.90;;;;;;4988762;28;37988;-88
2023/08/09 09:35:26;;;;;;;6.00;1.45;;;20.60;99.90;;;;;;5002151;28;37278;-90
2023/08/09 09:37:54;;;;;;;4.13;1.40;;;20.50;99.90;;;;;;5003482;28;37267;-94
2023/08/09 09:40:22;;;;;;;3.88;1.33;;;20.90;99.90;;;;;;4994686;28;37573;-94
2023/08/09 09:42:59;;;;;;;6.38;1.60;;;21.10;99.90;;;;;;4992800;28;37686;-92
2023/08/09 09:45:28;;;;;;;6.60;1.60;;;21.30;99.90;;;;;;4989006;28;37894;-84
2023/08/09 09:47:55;;;;;;;4.85;1.33;;;21.60;99.90;;;;;;4993890;28;37489;-92
2023/08/09 09:50:23;;;;;;;3.47;1.70;;;21.50;97.20;;;;;;4974594;28;36967;-88
2023/08/09 09:52:50;;;;;;;2.67;1.13;;;20.90;99.90;;;;;;4978928;28;37841;-89
2023/08/09 09:55:19;;;;;;;5.00;1.48;;;20.60;99.90;;;;;;4977560;28;37293;-89
2023/08/09 09:57:49;;;;;;;3.22;1.23;;;21.00;99.90;;;;;;4997038;28;38928;-89
2023/08/09 10:00:20;;;;;;;4.22;1.40;;;21.40;99.90;;;;;;4998532;28;37722;-82
2023/08/09 10:02:49;;;;;;;3.33;1.17;;;21.90;99.90;;;;;;4995323;28;40980;-84
2023/08/09 10:05:24;;;;;;;8.05;1.80;;;22.20;99.90;;;;;;4992857;28;38958;-89
2023/08/09 10:07:52;;;;;;;5.75;1.38;;;22.40;86.40;;;;;;4994533;28;37065;-89
2023/08/09 10:10:19;;;;;;;2.20;1.02;;;22.40;86.00;;;;;;4977900;28;35873;-89
2023/08/09 10:12:52;;;;;;;3.53;1.45;;;22.40;75.90;;;;;;4982239;28;37916;-84
2023/08/09 10:15:23;;;;;;;2.85;1.20;;;22.20;68.80;;;;;;4994043;28;37239;-90
2023/08/09 10:17:57;;;;;;;6.18;1.35;;;22.00;74.60;;;;;;4989103;28;37010;-91
2023/08/09 10:20:24;;;;;;;3.75;1.40;;;22.20;93.50;;;;;;4985732;28;38829;-89
2023/08/09 10:22:58;;;;;;;5.80;1.60;;;22.60;95.30;;;;;;4990328;28;37968;-90
2023/08/09 10:25:47;;;;;;;9.52;1.35;;;22.90;79.50;;;;;;4996341;28;38011;-95
2023/08/09 10:28:13;;;;;;;6.78;1.55;;;22.60;62.70;;;;;;4982497;28;37836;-86
2023/08/09 10:30:47;;;;;;;5.10;1.30;;;22.40;52.80;;;;;;4993778;28;37723;-92
2023/08/09 10:33:23;;;;;;;3.08;1.10;;;22.40;70.00;;;;;;4993352;28;39445;-88
2023/08/09 10:35:51;;;;;;;7.88;1.20;;;22.60;83.40;;;;;;4994039;28;38820;-89
2023/08/09 10:38:20;;;;;;;4.40;1.30;;;22.70;66.70;;;;;;4977632;28;38128;-92
2023/08/09 10:40:53;;;;;;;5.18;1.08;;;22.70;74.40;;;;;;4995707;28;37019;-88
2023/08/09 10:43:21;;;;;;;5.50;1.27;;;22.90;46.30;;;;;;4993216;28;37608;-90
2023/08/09 10:45:49;;;;;;;6.05;1.58;;;22.90;37.40;;;;;;4996144;28;37359;-89
2023/08/09 10:48:22;;;;;;;6.45;1.95;;;23.10;49.10;;;;;;4971816;28;36485;-90
2023/08/09 10:51:13;;;;;;;2.03;0.80;;;22.50;26.30;;;;;;4988433;28;36446;-89
2023/08/09 10:54:20;;;;;;;2.88;1.15;;;22.40;66.90;;;;;;4977836;28;47349;-88
2023/08/09 10:56:47;;;;;;;6.07;1.20;;;22.40;75.80;;;;;;4925804;28;47301;-90
2023/08/09 10:59:24;;;;;;;2.42;1.10;;;22.90;51.90;;;;;;4934715;28;37666;-89
2023/08/09 11:01:54;;;;;;;5.10;1.20;;;22.90;39.60;;;;;;4971351;28;36436;-90
2023/08/09 11:04:20;;;;;;;3.97;1.33;;;23.00;41.80;;;;;;4973247;28;38870;-91
2023/08/09 11:06:48;;;;;;;4.97;1.25;;;22.90;52.70;;;;;;4960399;28;37732;-87
2023/08/09 11:09:22;;;;;;;5.20;1.15;;;22.70;53.80;;;;;;4986275;28;37973;-87
2023/08/09 11:11:49;;;;;;;2.65;0.80;;;22.50;57.30;;;;;;4966816;28;37010;-89
2023/08/09 11:14:17;;;;;;;3.83;1.15;;;22.50;58.10;;;;;;4980060;28;39709;-91
2023/08/09 11:16:46;;;;;;;4.88;1.50;;;22.60;44.90;;;;;;4977687;28;37468;-85
2023/08/09 11:19:21;;;;;;;4.20;0.90;;;22.40;53.80;;;;;;4995287;28;38710;-89
2023/08/09 11:21:56;;;;;;;4.15;1.30;;;22.40;50.00;;;;;;4991536;28;36396;-89
2023/08/09 11:24:31;;;;;;;2.17;0.93;;;22.30;55.70;;;;;;4992721;28;37673;-89
2023/08/09 11:26:59;;;;;;;3.30;0.93;;;22.60;59.30;;;;;;4983654;28;40084;-88
2023/08/09 11:29:27;;;;;;;8.35;1.10;;;22.90;61.40;;;;;;4972564;28;37085;-87
2023/08/09 11:31:55;;;;;;;4.53;1.20;;;22.90;24.20;;;;;;4972072;28;36395;-86
2023/08/09 11:34:31;;;;;;;4.28;1.20;;;22.80;43.20;;;;;;4984229;28;37673;-91
2023/08/09 11:36:57;;;;;;;7.57;1.48;;;22.30;34.30;;;;;;4988209;28;38500;-90
2023/08/09 11:39:25;;;;;;;2.45;1.00;;;21.50;40.40;;;;;;4989433;28;37757;-89
2023/08/09 11:41:53;;;;;;;3.88;1.20;;;21.10;50.40;;;;;;4967951;28;37597;-89
2023/08/09 11:44:32;;;;;;;4.57;1.75;;;21.00;83.70;;;;;;4996076;28;38395;-88
2023/08/09 11:47:00;;;;;;;3.05;1.02;;;21.10;89.90;;;;;;4988485;28;38358;-89
2023/08/09 11:49:28;;;;;;;4.15;1.13;;;21.60;68.20;;;;;;4992271;28;38193;-88
2023/08/09 11:51:57;;;;;;;6.53;1.27;;;21.50;53.00;;;;;;4988449;28;36314;-88
2023/08/09 11:54:25;;;;;;;7.15;1.65;;;21.20;55.70;;;;;;4990223;28;37001;-86
2023/08/09 11:56:51;;;;;;;4.22;1.42;;;21.10;54.20;;;;;;4971961;28;38734;-87
2023/08/09 11:59:20;;;;;;;2.97;1.17;;;21.30;67.30;;;;;;4974211;28;36994;-90
2023/08/09 12:01:51;;;;;;;4.78;1.35;;;21.20;51.40;;;;;;4965940;28;36409;-86
2023/08/09 12:04:26;;;;;;;3.10;1.10;;;20.80;46.50;;;;;;4987045;28;37850;-85
2023/08/09 12:06:55;;;;;;;3.47;1.10;;;20.70;60.80;;;;;;4984521;28;37033;-87
2023/08/09 12:09:36;;;;;;;2.85;1.38;;;20.60;83.80;;;;;;4969629;28;37228;-86
2023/08/09 12:12:17;;;;;;;4.93;1.50;;;20.50;87.80;;;;;;4987382;28;37006;-85
2023/08/09 12:14:49;;;;;;;7.63;1.48;;;20.40;90.60;;;;;;4988956;28;37855;-85
2023/08/09 12:17:18;;;;;;;;;;;20.40;90.60;;;;;;4982306;28;38164;-87
2023/08/09 12:19:44;;;;;;;7.47;2.00;;;20.20;92.40;;;;;;4987632;28;36923;-87
2023/08/09 12:22:10;;;;;;;5.03;1.30;;;20.10;99.00;;;;;;4978521;28;36249;-87
2023/08/09 12:24:36;;;;;;;4.47;1.50;;;20.60;99.90;;;;;;4983180;28;39061;-85
2023/08/09 12:27:03;;;;;;;4.47;1.40;;;21.10;83.50;;;;;;4968024;28;37186;-86
2023/08/09 12:29:30;;;;;;;11.13;1.55;;;21.60;61.40;;;;;;4972387;28;46964;-86
2023/08/09 12:31:56;;;;;;;9.55;1.70;;;21.60;41.80;;;;;;4986453;28;36431;-86
2023/08/09 12:34:22;;;;;;;4.20;0.88;;;21.30;53.60;;;;;;4988483;28;38419;-86
2023/08/09 12:36:48;;;;;;;3.90;1.20;;;21.40;64.00;;;;;;4986809;28;38299;-86
2023/08/09 12:39:15;;;;;;;5.30;1.38;;;21.50;67.00;;;;;;4986476;28;37000;-86
2023/08/09 12:41:42;;;;;;;6.38;1.63;;;21.60;58.00;;;;;;4984171;28;36154;-89
2023/08/09 12:44:08;;;;;;;4.57;1.27;;;21.40;58.30;;;;;;4965843;28;37838;-88
2023/08/09 12:46:35;;;;;;;6.97;1.52;;;21.20;66.20;;;;;;4984448;28;37644;-85